Time,TemperatureF,DewpointF,PressureIn,WindDirection,WindDirectionDegrees,WindSpeedMPH,WindSpeedGustMPH,Humidity,HourlyPrecipIn,Conditions,Clouds,dailyrainin,SoftwareType,DateUTC
2013-07-12 00:04:00,68.2,66.2,29.74,North,-999,-999.0,-999.0,93,0.00,,,0.00,tws,2013-07-12 04:04:00,
2013-07-12 00:09:00,68.1,66.1,29.74,North,-999,-999.0,-999.0,93,0.00,,,0.00,tws,2013-07-12 04:09:00,
2013-07-12 00:14:00,68.2,66.1,29.74,North,-999,-999.0,-999.0,93,0.00,,,0.00,tws,2013-07-12 04:14:00,
2013-07-12 00:19:00,68.1,66.0,29.74,North,-999,-999.0,-999.0,93,0.00,,,0.00,tws,2013-07-12 04:19:00,
2013-07-12 00:24:00,68.0,65.9,29.73,North,-999,-999.0,-999.0,93,0.00,,,0.00,tws,2013-07-12 04:24:00,
2013-07-12 00:29:00,68.0,65.9,29.73,North,-999,-999.0,-999.0,92,0.00,,,0.00,tws,2013-07-12 04:29:00,
2013-07-12 00:34:00,68.0,65.9,29.74,North,-999,-999.0,-999.0,93,0.00,,,0.00,tws,2013-07-12 04:34:00,
2013-07-12 00:39:00,67.9,65.9,29.73,North,-999,-999.0,-999.0,93,0.00,,,0.00,tws,2013-07-12 04:39:00,
2013-07-12 00:44:00,67.9,65.8,29.73,North,-999,-999.0,-999.0,93,0.00,,,0.00,tws,2013-07-12 04:44:00,
2013-07-12 00:49:00,67.9,65.8,29.72,North,-999,-999.0,-999.0,93,0.00,,,0.00,tws,2013-07-12 04:49:00,
2013-07-12 00:54:00,67.8,65.7,29.72,North,-999,-999.0,-999.0,93,0.00,,,0.00,tws,2013-07-12 04:54:00,
2013-07-12 00:59:00,67.7,65.6,29.72,North,-999,-999.0,-999.0,93,0.00,,,0.00,tws,2013-07-12 04:59:00,
2013-07-12 01:04:00,67.5,65.5,29.72,North,-999,-999.0,-999.0,93,0.00,,,0.00,tws,2013-07-12 05:04:00,
2013-07-12 01:09:00,67.3,65.3,29.72,North,-999,-999.0,-999.0,93,0.00,,,0.00,tws,2013-07-12 05:09:00,
2013-07-12 01:14:00,67.3,65.3,29.72,North,-999,-999.0,-999.0,93,0.00,,,0.00,tws,2013-07-12 05:14:00,
2013-07-12 01:19:00,67.2,65.2,29.72,North,-999,-999.0,-999.0,93,0.00,,,0.00,tws,2013-07-12 05:19:00,
2013-07-12 01:24:00,67.1,65.1,29.72,North,-999,-999.0,-999.0,93,0.00,,,0.00,tws,2013-07-12 05:24:00,
2013-07-12 01:29:00,67.0,65.1,29.72,North,-999,-999.0,-999.0,93,0.00,,,0.00,tws,2013-07-12 05:29:00,
2013-07-12 01:34:00,66.9,64.9,29.72,North,-999,-999.0,-999.0,93,0.00,,,0.00,tws,2013-07-12 05:34:00,
2013-07-12 01:39:00,66.9,64.9,29.72,North,-999,-999.0,-999.0,93,0.00,,,0.00,tws,2013-07-12 05:39:00,
2013-07-12 01:44:00,66.9,64.8,29.72,North,-999,-999.0,-999.0,93,0.00,,,0.00,tws,2013-07-12 05:44:00,
2013-07-12 01:49:00,66.7,64.8,29.72,North,-999,-999.0,-999.0,93,0.00,,,0.00,tws,2013-07-12 05:49:00,
2013-07-12 01:54:00,66.7,64.7,29.72,North,-999,-999.0,-999.0,93,0.00,,,0.00,tws,2013-07-12 05:54:00,
2013-07-12 01:59:00,66.6,64.6,29.72,North,-999,-999.0,-999.0,93,0.00,,,0.00,tws,2013-07-12 05:59:00,
2013-07-12 02:04:00,66.6,64.6,29.72,North,-999,-999.0,-999.0,93,0.00,,,0.00,tws,2013-07-12 06:04:00,
2013-07-12 02:09:00,66.4,64.5,29.72,North,-999,-999.0,-999.0,93,0.00,,,0.00,tws,2013-07-12 06:09:00,
2013-07-12 02:14:00,66.4,64.4,29.72,North,-999,-999.0,-999.0,93,0.00,,,0.00,tws,2013-07-12 06:14:00,
2013-07-12 02:19:00,66.4,64.5,29.73,North,-999,-999.0,-999.0,93,0.00,,,0.00,tws,2013-07-12 06:19:00,
2013-07-12 02:24:00,66.4,64.4,29.72,North,-999,-999.0,-999.0,93,0.00,,,0.00,tws,2013-07-12 06:24:00,
2013-07-12 02:29:00,66.3,64.3,29.72,North,-999,-999.0,-999.0,93,0.00,,,0.00,tws,2013-07-12 06:29:00,
2013-07-12 02:34:00,66.1,64.2,29.73,North,-999,-999.0,-999.0,93,0.00,,,0.00,tws,2013-07-12 06:34:00,
2013-07-12 02:39:00,66.1,64.2,29.73,North,-999,-999.0,-999.0,93,0.00,,,0.00,tws,2013-07-12 06:39:00,
2013-07-12 02:44:00,66.0,64.1,29.72,North,-999,-999.0,-999.0,93,0.00,,,0.00,tws,2013-07-12 06:44:00,
2013-07-12 02:49:00,66.0,64.1,29.72,North,-999,-999.0,-999.0,93,0.00,,,0.00,tws,2013-07-12 06:49:00,
2013-07-12 02:54:00,65.8,64.0,29.72,North,-999,-999.0,-999.0,93,0.00,,,0.00,tws,2013-07-12 06:54:00,
2013-07-12 02:59:00,65.6,63.9,29.72,North,-999,-999.0,-999.0,93,0.00,,,0.00,tws,2013-07-12 06:59:00,
2013-07-12 03:04:00,65.6,63.7,29.72,North,-999,-999.0,-999.0,93,0.00,,,0.00,tws,2013-07-12 07:04:00,
2013-07-12 03:09:00,65.6,63.8,29.72,North,-999,-999.0,-999.0,93,0.00,,,0.00,tws,2013-07-12 07:09:00,
2013-07-12 03:14:00,65.6,63.7,29.72,North,-999,-999.0,-999.0,93,0.00,,,0.00,tws,2013-07-12 07:14:00,
2013-07-12 03:19:00,65.5,63.6,29.72,North,-999,-999.0,-999.0,93,0.00,,,0.00,tws,2013-07-12 07:19:00,
2013-07-12 03:24:00,65.5,63.7,29.72,North,-999,-999.0,-999.0,93,0.00,,,0.00,tws,2013-07-12 07:24:00,
2013-07-12 03:29:00,65.5,63.6,29.71,North,-999,-999.0,-999.0,93,0.00,,,0.00,tws,2013-07-12 07:29:00,
2013-07-12 03:34:00,65.4,63.6,29.72,North,-999,-999.0,-999.0,93,0.00,,,0.00,tws,2013-07-12 07:34:00,
2013-07-12 03:39:00,65.4,63.5,29.72,North,-999,-999.0,-999.0,93,0.00,,,0.00,tws,2013-07-12 07:39:00,
2013-07-12 03:44:00,65.4,63.5,29.72,North,-999,-999.0,-999.0,93,0.00,,,0.00,tws,2013-07-12 07:44:00,
2013-07-12 03:49:00,65.4,63.4,29.72,North,-999,-999.0,-999.0,93,0.00,,,0.00,tws,2013-07-12 07:49:00,
2013-07-12 03:54:00,65.3,63.3,29.72,North,-999,-999.0,-999.0,93,0.00,,,0.00,tws,2013-07-12 07:54:00,
2013-07-12 03:59:00,65.3,63.3,29.72,North,-999,-999.0,-999.0,93,0.00,,,0.00,tws,2013-07-12 07:59:00,
2013-07-12 04:04:00,65.3,63.3,29.72,North,-999,-999.0,-999.0,93,0.00,,,0.00,tws,2013-07-12 08:04:00,
2013-07-12 04:09:00,65.2,63.3,29.72,North,-999,-999.0,-999.0,93,0.00,,,0.00,tws,2013-07-12 08:09:00,
2013-07-12 04:14:00,65.2,63.3,29.72,North,-999,-999.0,-999.0,93,0.00,,,0.00,tws,2013-07-12 08:14:00,
2013-07-12 04:19:00,65.1,63.2,29.72,North,-999,-999.0,-999.0,93,0.00,,,0.00,tws,2013-07-12 08:19:00,
2013-07-12 04:24:00,65.1,63.2,29.72,North,-999,-999.0,-999.0,93,0.00,,,0.00,tws,2013-07-12 08:24:00,
2013-07-12 04:29:00,65.0,63.2,29.71,North,-999,-999.0,-999.0,93,0.00,,,0.00,tws,2013-07-12 08:29:00,
2013-07-12 04:34:00,65.0,63.1,29.71,North,-999,-999.0,-999.0,93,0.00,,,0.00,tws,2013-07-12 08:34:00,
2013-07-12 04:39:00,65.0,63.0,29.71,North,-999,-999.0,-999.0,93,0.00,,,0.00,tws,2013-07-12 08:39:00,
2013-07-12 04:44:00,65.0,63.1,29.71,North,-999,-999.0,-999.0,93,0.00,,,0.00,tws,2013-07-12 08:44:00,
2013-07-12 04:49:00,64.9,63.0,29.71,North,-999,-999.0,-999.0,93,0.00,,,0.00,tws,2013-07-12 08:49:00,
2013-07-12 04:54:00,64.9,63.1,29.71,North,-999,-999.0,-999.0,93,0.00,,,0.00,tws,2013-07-12 08:54:00,
2013-07-12 04:59:00,64.8,63.0,29.71,North,-999,-999.0,-999.0,93,0.00,,,0.00,tws,2013-07-12 08:59:00,
2013-07-12 05:04:00,64.6,62.8,29.71,North,-999,-999.0,-999.0,93,0.00,,,0.00,tws,2013-07-12 09:04:00,
2013-07-12 05:09:00,64.7,62.8,29.71,North,-999,-999.0,-999.0,93,0.00,,,0.00,tws,2013-07-12 09:09:00,
2013-07-12 05:14:00,64.7,62.8,29.71,North,-999,-999.0,-999.0,93,0.00,,,0.00,tws,2013-07-12 09:14:00,
2013-07-12 05:19:00,64.7,62.8,29.71,North,-999,-999.0,-999.0,93,0.00,,,0.00,tws,2013-07-12 09:19:00,
2013-07-12 05:24:00,64.7,62.8,29.71,North,-999,-999.0,-999.0,93,0.00,,,0.00,tws,2013-07-12 09:24:00,
2013-07-12 05:29:00,64.6,62.7,29.72,North,-999,-999.0,-999.0,93,0.00,,,0.00,tws,2013-07-12 09:29:00,
2013-07-12 05:34:00,64.6,62.7,29.71,North,-999,-999.0,-999.0,93,0.00,,,0.00,tws,2013-07-12 09:34:00,
2013-07-12 05:39:00,64.5,62.5,29.71,North,-999,-999.0,-999.0,93,0.00,,,0.00,tws,2013-07-12 09:39:00,
2013-07-12 05:44:00,64.4,62.4,29.72,North,-999,-999.0,-999.0,93,0.00,,,0.00,tws,2013-07-12 09:44:00,
2013-07-12 05:49:00,64.4,62.4,29.72,North,-999,-999.0,-999.0,93,0.00,,,0.00,tws,2013-07-12 09:49:00,
2013-07-12 05:54:00,64.4,62.4,29.72,North,-999,-999.0,-999.0,93,0.00,,,0.00,tws,2013-07-12 09:54:00,
2013-07-12 05:59:00,64.5,62.5,29.72,North,-999,-999.0,-999.0,93,0.00,,,0.00,tws,2013-07-12 09:59:00,
2013-07-12 06:04:00,64.6,62.5,29.72,North,-999,-999.0,-999.0,92,0.00,,,0.00,tws,2013-07-12 10:04:00,
2013-07-12 06:09:00,64.8,62.7,29.72,North,-999,-999.0,-999.0,92,0.00,,,0.00,tws,2013-07-12 10:09:00,
2013-07-12 06:14:00,64.9,62.7,29.72,North,-999,-999.0,-999.0,92,0.00,,,0.00,tws,2013-07-12 10:14:00,
2013-07-12 06:19:00,64.9,62.8,29.72,North,-999,-999.0,-999.0,93,0.00,,,0.00,tws,2013-07-12 10:19:00,
2013-07-12 06:24:00,64.8,62.7,29.72,North,-999,-999.0,-999.0,93,0.00,,,0.00,tws,2013-07-12 10:24:00,
2013-07-12 06:29:00,64.7,62.6,29.72,North,-999,-999.0,-999.0,92,0.00,,,0.00,tws,2013-07-12 10:29:00,
2013-07-12 06:34:00,64.6,62.7,29.72,North,-999,-999.0,-999.0,93,0.00,,,0.00,tws,2013-07-12 10:34:00,
2013-07-12 06:39:00,64.7,62.7,29.73,North,-999,-999.0,-999.0,93,0.00,,,0.00,tws,2013-07-12 10:39:00,
2013-07-12 06:44:00,64.7,62.7,29.73,North,-999,-999.0,-999.0,93,0.00,,,0.00,tws,2013-07-12 10:44:00,
2013-07-12 06:49:00,64.8,62.7,29.73,North,-999,-999.0,-999.0,93,0.00,,,0.00,tws,2013-07-12 10:49:00,
2013-07-12 06:54:00,64.7,62.7,29.73,North,-999,-999.0,-999.0,93,0.00,,,0.00,tws,2013-07-12 10:54:00,
2013-07-12 06:59:00,64.7,62.8,29.73,North,-999,-999.0,-999.0,93,0.00,,,0.00,tws,2013-07-12 10:59:00,
2013-07-12 07:04:00,64.8,62.7,29.73,North,-999,-999.0,-999.0,92,0.00,,,0.00,tws,2013-07-12 11:04:00,
2013-07-12 07:09:00,64.9,62.9,29.73,North,-999,-999.0,-999.0,93,0.00,,,0.00,tws,2013-07-12 11:09:00,
2013-07-12 07:14:00,65.0,62.9,29.73,North,-999,-999.0,-999.0,92,0.00,,,0.00,tws,2013-07-12 11:14:00,
2013-07-12 07:19:00,65.1,63.0,29.73,North,-999,-999.0,-999.0,92,0.00,,,0.00,tws,2013-07-12 11:19:00,
2013-07-12 07:24:00,65.2,63.1,29.73,North,-999,-999.0,-999.0,92,0.00,,,0.00,tws,2013-07-12 11:24:00,
2013-07-12 07:29:00,65.2,63.2,29.73,North,-999,-999.0,-999.0,93,0.00,,,0.00,tws,2013-07-12 11:29:00,
2013-07-12 07:34:00,65.2,63.2,29.73,North,-999,-999.0,-999.0,93,0.00,,,0.00,tws,2013-07-12 11:34:00,
2013-07-12 07:39:00,65.3,63.2,29.74,North,-999,-999.0,-999.0,92,0.00,,,0.00,tws,2013-07-12 11:39:00,
2013-07-12 07:44:00,65.3,63.3,29.74,North,-999,-999.0,-999.0,93,0.00,,,0.00,tws,2013-07-12 11:44:00,
2013-07-12 07:49:00,65.2,63.3,29.74,North,-999,-999.0,-999.0,93,0.00,,,0.00,tws,2013-07-12 11:49:00,
2013-07-12 07:54:00,65.2,63.2,29.74,North,-999,-999.0,-999.0,93,0.00,,,0.00,tws,2013-07-12 11:54:00,
2013-07-12 07:59:00,65.3,63.3,29.74,North,-999,-999.0,-999.0,93,0.00,,,0.00,tws,2013-07-12 11:59:00,
2013-07-12 08:04:00,65.4,63.4,29.74,North,-999,-999.0,-999.0,93,0.00,,,0.00,tws,2013-07-12 12:04:00,
2013-07-12 08:09:00,65.5,63.5,29.74,North,-999,-999.0,-999.0,93,0.00,,,0.00,tws,2013-07-12 12:09:00,
2013-07-12 08:14:00,65.7,63.6,29.74,North,-999,-999.0,-999.0,93,0.00,,,0.00,tws,2013-07-12 12:14:00,
2013-07-12 08:19:00,65.9,64.0,29.75,North,-999,-999.0,-999.0,93,0.00,,,0.00,tws,2013-07-12 12:19:00,
2013-07-12 08:24:00,66.2,64.2,29.75,North,-999,-999.0,-999.0,93,0.00,,,0.00,tws,2013-07-12 12:24:00,
2013-07-12 08:29:00,66.6,64.6,29.74,North,-999,-999.0,-999.0,93,0.00,,,0.00,tws,2013-07-12 12:29:00,
2013-07-12 08:34:00,67.0,65.0,29.75,North,-999,-999.0,-999.0,93,0.00,,,0.00,tws,2013-07-12 12:34:00,
2013-07-12 08:39:00,67.3,65.5,29.75,North,-999,-999.0,-999.0,93,0.00,,,0.00,tws,2013-07-12 12:39:00,
2013-07-12 08:44:00,67.4,65.7,29.75,North,-999,-999.0,-999.0,93,0.00,,,0.00,tws,2013-07-12 12:44:00,
2013-07-12 08:49:00,67.4,65.9,29.75,North,-999,-999.0,-999.0,94,0.00,,,0.00,tws,2013-07-12 12:49:00,
2013-07-12 08:54:00,67.5,65.8,29.75,North,-999,-999.0,-999.0,94,0.00,,,0.00,tws,2013-07-12 12:54:00,
2013-07-12 08:59:00,67.7,66.1,29.75,North,-999,-999.0,-999.0,94,0.00,,,0.00,tws,2013-07-12 12:59:00,
2013-07-12 09:04:00,68.0,66.5,29.75,North,-999,-999.0,-999.0,94,0.00,,,0.00,tws,2013-07-12 13:04:00,
2013-07-12 09:09:00,68.2,66.7,29.75,North,-999,-999.0,-999.0,95,0.00,,,0.00,tws,2013-07-12 13:09:00,
2013-07-12 09:14:00,68.4,67.0,29.75,North,-999,-999.0,-999.0,95,0.00,,,0.00,tws,2013-07-12 13:14:00,
2013-07-12 09:19:00,68.6,67.4,29.75,North,-999,-999.0,-999.0,95,0.00,,,0.00,tws,2013-07-12 13:19:00,
2013-07-12 09:24:00,69.0,67.9,29.75,North,-999,-999.0,-999.0,96,0.00,,,0.00,tws,2013-07-12 13:24:00,
2013-07-12 09:29:00,69.2,68.2,29.75,North,-999,-999.0,-999.0,96,0.00,,,0.00,tws,2013-07-12 13:29:00,
2013-07-12 09:34:00,69.4,68.5,29.75,North,-999,-999.0,-999.0,96,0.00,,,0.00,tws,2013-07-12 13:34:00,
2013-07-12 09:39:00,69.7,68.8,29.76,North,-999,-999.0,-999.0,96,0.00,,,0.00,tws,2013-07-12 13:39:00,
2013-07-12 09:44:00,69.9,68.9,29.76,North,-999,-999.0,-999.0,96,0.00,,,0.00,tws,2013-07-12 13:44:00,
2013-07-12 09:49:00,70.1,69.2,29.76,North,-999,-999.0,-999.0,96,0.00,,,0.00,tws,2013-07-12 13:49:00,
2013-07-12 09:54:00,70.2,69.3,29.76,North,-999,-999.0,-999.0,97,0.00,,,0.00,tws,2013-07-12 13:54:00,
2013-07-12 09:59:00,70.2,69.3,29.76,North,-999,-999.0,-999.0,96,0.00,,,0.00,tws,2013-07-12 13:59:00,
2013-07-12 10:04:00,70.3,69.4,29.75,North,-999,-999.0,-999.0,96,0.00,,,0.00,tws,2013-07-12 14:04:00,
2013-07-12 10:09:00,70.5,69.6,29.76,North,-999,-999.0,-999.0,97,0.00,,,0.00,tws,2013-07-12 14:09:00,
2013-07-12 10:14:00,70.7,69.8,29.75,North,-999,-999.0,-999.0,96,0.00,,,0.00,tws,2013-07-12 14:14:00,
2013-07-12 10:19:00,71.0,70.1,29.75,North,-999,-999.0,-999.0,96,0.00,,,0.00,tws,2013-07-12 14:19:00,
2013-07-12 10:24:00,71.3,70.3,29.75,North,-999,-999.0,-999.0,96,0.00,,,0.00,tws,2013-07-12 14:24:00,
2013-07-12 10:29:00,71.6,70.6,29.75,North,-999,-999.0,-999.0,96,0.00,,,0.00,tws,2013-07-12 14:29:00,
2013-07-12 10:34:00,71.9,70.7,29.75,North,-999,-999.0,-999.0,95,0.00,,,0.00,tws,2013-07-12 14:34:00,
2013-07-12 10:39:00,72.2,70.9,29.75,North,-999,-999.0,-999.0,95,0.00,,,0.00,tws,2013-07-12 14:39:00,
2013-07-12 10:44:00,72.4,71.0,29.74,North,-999,-999.0,-999.0,95,0.00,,,0.00,tws,2013-07-12 14:44:00,
2013-07-12 10:49:00,72.7,71.4,29.74,North,-999,-999.0,-999.0,95,0.00,,,0.00,tws,2013-07-12 14:49:00,
2013-07-12 10:54:00,73.0,71.7,29.74,North,-999,-999.0,-999.0,95,0.00,,,0.00,tws,2013-07-12 14:54:00,
2013-07-12 10:59:00,73.4,72.0,29.74,North,-999,-999.0,-999.0,95,0.00,,,0.00,tws,2013-07-12 14:59:00,
2013-07-12 11:04:00,73.7,72.1,29.74,North,-999,-999.0,-999.0,94,0.00,,,0.00,tws,2013-07-12 15:04:00,
2013-07-12 11:09:00,74.1,72.5,29.75,North,-999,-999.0,-999.0,95,0.00,,,0.00,tws,2013-07-12 15:09:00,
2013-07-12 11:14:00,74.4,72.6,29.75,North,-999,-999.0,-999.0,94,0.00,,,0.00,tws,2013-07-12 15:14:00,
2013-07-12 11:19:00,74.7,72.6,29.75,North,-999,-999.0,-999.0,93,0.00,,,0.00,tws,2013-07-12 15:19:00,
2013-07-12 11:24:00,74.7,72.5,29.75,North,-999,-999.0,-999.0,92,0.00,,,0.00,tws,2013-07-12 15:24:00,
2013-07-12 11:29:00,74.5,72.1,29.75,North,-999,-999.0,-999.0,92,0.00,,,0.00,tws,2013-07-12 15:29:00,
2013-07-12 11:34:00,74.6,72.4,29.75,North,-999,-999.0,-999.0,92,0.00,,,0.00,tws,2013-07-12 15:34:00,
2013-07-12 11:39:00,74.7,72.9,29.75,North,-999,-999.0,-999.0,94,0.00,,,0.00,tws,2013-07-12 15:39:00,
2013-07-12 11:44:00,74.5,72.7,29.75,North,-999,-999.0,-999.0,94,0.00,,,0.00,tws,2013-07-12 15:44:00,
2013-07-12 11:49:00,74.3,72.6,29.75,North,-999,-999.0,-999.0,94,0.00,,,0.00,tws,2013-07-12 15:49:00,
2013-07-12 11:54:00,74.2,72.5,29.75,North,-999,-999.0,-999.0,94,0.00,,,0.00,tws,2013-07-12 15:54:00,
2013-07-12 11:59:00,74.4,72.9,29.75,North,-999,-999.0,-999.0,95,0.00,,,0.00,tws,2013-07-12 15:59:00,
2013-07-12 12:04:00,75.2,73.5,29.75,North,-999,-999.0,-999.0,94,0.00,,,0.00,tws,2013-07-12 16:04:00,
2013-07-12 12:09:00,76.0,73.6,29.74,North,-999,-999.0,-999.0,92,0.00,,,0.00,tws,2013-07-12 16:09:00,
2013-07-12 12:14:00,76.6,74.1,29.74,North,-999,-999.0,-999.0,91,0.00,,,0.00,tws,2013-07-12 16:14:00,
2013-07-12 12:19:00,77.4,74.8,29.74,North,-999,-999.0,-999.0,91,0.00,,,0.00,tws,2013-07-12 16:19:00,
2013-07-12 12:24:00,77.9,74.9,29.74,North,-999,-999.0,-999.0,90,0.00,,,0.00,tws,2013-07-12 16:24:00,
2013-07-12 12:29:00,78.1,75.0,29.74,North,-999,-999.0,-999.0,90,0.00,,,0.00,tws,2013-07-12 16:29:00,
2013-07-12 12:34:00,77.8,74.0,29.74,North,-999,-999.0,-999.0,87,0.00,,,0.00,tws,2013-07-12 16:34:00,
2013-07-12 12:39:00,77.9,74.6,29.74,North,-999,-999.0,-999.0,89,0.00,,,0.00,tws,2013-07-12 16:39:00,
2013-07-12 12:44:00,78.5,74.7,29.74,North,-999,-999.0,-999.0,88,0.00,,,0.00,tws,2013-07-12 16:44:00,
2013-07-12 12:49:00,79.0,74.6,29.74,North,-999,-999.0,-999.0,86,0.00,,,0.00,tws,2013-07-12 16:49:00,
2013-07-12 12:54:00,79.3,74.4,29.74,North,-999,-999.0,-999.0,84,0.00,,,0.00,tws,2013-07-12 16:54:00,
2013-07-12 12:59:00,79.3,75.1,29.74,North,-999,-999.0,-999.0,86,0.00,,,0.00,tws,2013-07-12 16:59:00,
2013-07-12 13:04:00,79.1,74.5,29.74,North,-999,-999.0,-999.0,85,0.00,,,0.00,tws,2013-07-12 17:04:00,
2013-07-12 13:14:00,79.5,74.3,29.74,North,-999,-999.0,-999.0,83,0.00,,,0.00,tws,2013-07-12 17:14:00,
2013-07-12 13:20:00,79.3,73.8,29.74,North,-999,-999.0,-999.0,83,0.00,,,0.00,tws,2013-07-12 17:20:00,
2013-07-12 13:29:00,78.9,74.5,29.74,North,-999,-999.0,-999.0,86,0.00,,,0.00,tws,2013-07-12 17:29:00,
2013-07-12 13:34:00,78.6,73.2,29.74,North,-999,-999.0,-999.0,83,0.00,,,0.00,tws,2013-07-12 17:34:00,
2013-07-12 13:39:00,77.6,73.4,29.74,North,-999,-999.0,-999.0,86,0.00,,,0.00,tws,2013-07-12 17:39:00,
2013-07-12 13:44:00,76.6,73.5,29.74,North,-999,-999.0,-999.0,89,0.12,,,0.01,tws,2013-07-12 17:44:00,
2013-07-12 13:49:00,75.5,73.0,29.74,North,-999,-999.0,-999.0,91,0.12,,,0.02,tws,2013-07-12 17:49:00,
2013-07-12 13:54:00,74.3,72.4,29.73,North,-999,-999.0,-999.0,93,0.12,,,0.03,tws,2013-07-12 17:54:00,
2013-07-12 13:59:00,73.5,72.1,29.73,North,-999,-999.0,-999.0,95,0.00,,,0.03,tws,2013-07-12 17:59:00,
2013-07-12 14:05:00,73.3,72.1,29.74,North,-999,-999.0,-999.0,96,0.00,,,0.03,tws,2013-07-12 18:05:00,
2013-07-12 14:10:00,73.1,72.0,29.74,North,-999,-999.0,-999.0,96,0.00,,,0.03,tws,2013-07-12 18:10:00,
2013-07-12 14:19:00,72.8,71.7,29.74,North,-999,-999.0,-999.0,96,0.12,,,0.04,tws,2013-07-12 18:19:00,
2013-07-12 14:24:00,72.8,71.7,29.74,North,-999,-999.0,-999.0,96,0.12,,,0.05,tws,2013-07-12 18:24:00,
2013-07-12 14:29:00,72.7,71.6,29.74,North,-999,-999.0,-999.0,96,0.00,,,0.05,tws,2013-07-12 18:29:00,
2013-07-12 14:34:00,72.8,71.7,29.74,North,-999,-999.0,-999.0,96,0.00,,,0.05,tws,2013-07-12 18:34:00,
2013-07-12 14:39:00,72.8,71.7,29.74,North,-999,-999.0,-999.0,96,0.00,,,0.05,tws,2013-07-12 18:39:00,
2013-07-12 14:44:00,72.9,71.7,29.74,North,-999,-999.0,-999.0,96,0.00,,,0.05,tws,2013-07-12 18:44:00,
2013-07-12 14:49:00,73.0,71.8,29.74,North,-999,-999.0,-999.0,96,0.00,,,0.05,tws,2013-07-12 18:49:00,
2013-07-12 14:55:00,73.2,72.0,29.74,North,-999,-999.0,-999.0,96,0.00,,,0.05,tws,2013-07-12 18:55:00,
2013-07-12 15:04:00,73.5,72.4,29.74,North,-999,-999.0,-999.0,96,0.00,,,0.05,tws,2013-07-12 19:04:00,
2013-07-12 15:09:00,73.6,72.5,29.74,North,-999,-999.0,-999.0,96,0.00,,,0.05,tws,2013-07-12 19:09:00,
2013-07-12 15:14:00,73.5,72.4,29.74,North,-999,-999.0,-999.0,96,0.00,,,0.05,tws,2013-07-12 19:14:00,
2013-07-12 15:19:00,73.5,72.4,29.74,North,-999,-999.0,-999.0,96,0.00,,,0.05,tws,2013-07-12 19:19:00,
2013-07-12 15:24:00,73.6,72.4,29.74,North,-999,-999.0,-999.0,96,0.00,,,0.05,tws,2013-07-12 19:24:00,
2013-07-12 15:29:00,73.8,72.7,29.74,North,-999,-999.0,-999.0,96,0.00,,,0.05,tws,2013-07-12 19:29:00,
2013-07-12 15:34:00,74.1,72.9,29.73,North,-999,-999.0,-999.0,96,0.00,,,0.05,tws,2013-07-12 19:34:00,
2013-07-12 15:39:00,74.4,73.2,29.73,North,-999,-999.0,-999.0,96,0.00,,,0.05,tws,2013-07-12 19:39:00,
2013-07-12 15:44:00,74.4,73.2,29.73,North,-999,-999.0,-999.0,95,0.00,,,0.05,tws,2013-07-12 19:44:00,
2013-07-12 15:49:00,74.3,72.8,29.73,North,-999,-999.0,-999.0,95,0.00,,,0.05,tws,2013-07-12 19:49:00,
2013-07-12 15:54:00,74.4,73.0,29.72,North,-999,-999.0,-999.0,95,0.00,,,0.05,tws,2013-07-12 19:54:00,
2013-07-12 15:59:00,74.7,73.3,29.72,North,-999,-999.0,-999.0,95,0.00,,,0.05,tws,2013-07-12 19:59:00,
2013-07-12 16:04:00,74.8,73.4,29.72,North,-999,-999.0,-999.0,95,0.00,,,0.05,tws,2013-07-12 20:04:00,
2013-07-12 16:09:00,74.9,73.2,29.72,North,-999,-999.0,-999.0,94,0.00,,,0.05,tws,2013-07-12 20:09:00,
2013-07-12 16:15:00,74.9,72.6,29.72,North,-999,-999.0,-999.0,92,0.00,,,0.05,tws,2013-07-12 20:15:00,
2013-07-12 16:24:00,74.5,72.6,29.73,North,-999,-999.0,-999.0,93,0.00,,,0.05,tws,2013-07-12 20:24:00,
2013-07-12 16:29:00,73.7,71.8,29.73,North,-999,-999.0,-999.0,93,0.00,,,0.05,tws,2013-07-12 20:29:00,
2013-07-12 16:35:00,73.0,71.1,29.73,North,-999,-999.0,-999.0,93,0.00,,,0.05,tws,2013-07-12 20:35:00,
2013-07-12 16:44:00,71.5,69.6,29.73,North,-999,-999.0,-999.0,93,0.00,,,0.05,tws,2013-07-12 20:44:00,
2013-07-12 16:49:00,70.7,69.0,29.73,North,-999,-999.0,-999.0,94,0.00,,,0.05,tws,2013-07-12 20:49:00,
2013-07-12 16:54:00,70.2,68.6,29.73,North,-999,-999.0,-999.0,94,0.00,,,0.05,tws,2013-07-12 20:54:00,
2013-07-12 17:00:00,69.7,68.3,29.74,North,-999,-999.0,-999.0,95,0.00,,,0.05,tws,2013-07-12 21:00:00,
2013-07-12 17:05:00,69.2,68.1,29.74,North,-999,-999.0,-999.0,96,0.24,,,0.07,tws,2013-07-12 21:05:00,
2013-07-12 17:14:00,68.1,67.3,29.75,North,-999,-999.0,-999.0,97,0.48,,,0.14,tws,2013-07-12 21:14:00,
2013-07-12 17:19:00,67.6,66.8,29.75,North,-999,-999.0,-999.0,97,2.04,,,0.31,tws,2013-07-12 21:19:00,
2013-07-12 17:24:00,67.0,66.3,29.76,North,-999,-999.0,-999.0,97,0.48,,,0.35,tws,2013-07-12 21:24:00,
2013-07-12 17:29:00,66.6,65.8,29.76,North,-999,-999.0,-999.0,97,0.12,,,0.36,tws,2013-07-12 21:29:00,
2013-07-12 17:34:00,66.5,65.6,29.76,North,-999,-999.0,-999.0,97,0.00,,,0.36,tws,2013-07-12 21:34:00,
2013-07-12 17:39:00,66.4,65.5,29.76,North,-999,-999.0,-999.0,96,0.00,,,0.36,tws,2013-07-12 21:39:00,
2013-07-12 17:44:00,66.4,65.3,29.76,North,-999,-999.0,-999.0,96,0.00,,,0.36,tws,2013-07-12 21:44:00,
2013-07-12 17:49:00,66.3,65.3,29.76,North,-999,-999.0,-999.0,96,0.00,,,0.36,tws,2013-07-12 21:49:00,
2013-07-12 17:59:00,66.3,65.1,29.76,North,-999,-999.0,-999.0,95,0.00,,,0.36,tws,2013-07-12 21:59:00,
2013-07-12 18:04:00,66.4,65.1,29.75,North,-999,-999.0,-999.0,95,0.00,,,0.36,tws,2013-07-12 22:04:00,
2013-07-12 18:09:00,66.6,65.2,29.76,North,-999,-999.0,-999.0,95,0.00,,,0.36,tws,2013-07-12 22:09:00,
2013-07-12 18:14:00,66.8,65.3,29.76,North,-999,-999.0,-999.0,94,0.00,,,0.36,tws,2013-07-12 22:14:00,
2013-07-12 18:20:00,67.1,65.5,29.76,North,-999,-999.0,-999.0,94,0.00,,,0.36,tws,2013-07-12 22:20:00,
2013-07-12 18:29:00,67.0,65.5,29.77,North,-999,-999.0,-999.0,94,0.00,,,0.36,tws,2013-07-12 22:29:00,
2013-07-12 18:34:00,67.1,65.5,29.77,North,-999,-999.0,-999.0,94,0.00,,,0.36,tws,2013-07-12 22:34:00,
2013-07-12 18:39:00,67.3,65.6,29.77,North,-999,-999.0,-999.0,94,0.00,,,0.36,tws,2013-07-12 22:39:00,
2013-07-12 18:45:00,67.4,65.7,29.77,North,-999,-999.0,-999.0,94,0.12,,,0.37,tws,2013-07-12 22:45:00,
2013-07-12 18:54:00,67.4,65.7,29.77,North,-999,-999.0,-999.0,93,0.00,,,0.37,tws,2013-07-12 22:54:00,
2013-07-12 19:05:00,67.6,65.6,29.77,North,-999,-999.0,-999.0,93,0.00,,,0.38,tws,2013-07-12 23:05:00,
2013-07-12 19:14:00,67.7,65.8,29.77,North,-999,-999.0,-999.0,93,0.00,,,0.38,tws,2013-07-12 23:14:00,
2013-07-12 19:19:00,67.9,65.8,29.77,North,-999,-999.0,-999.0,93,0.00,,,0.38,tws,2013-07-12 23:19:00,
2013-07-12 19:24:00,68.0,65.9,29.76,North,-999,-999.0,-999.0,93,0.00,,,0.38,tws,2013-07-12 23:24:00,
2013-07-12 19:29:00,68.1,66.0,29.76,North,-999,-999.0,-999.0,93,0.00,,,0.38,tws,2013-07-12 23:29:00,
2013-07-12 19:34:00,68.2,66.1,29.76,North,-999,-999.0,-999.0,93,0.00,,,0.38,tws,2013-07-12 23:34:00,
2013-07-12 19:39:00,68.2,66.1,29.76,North,-999,-999.0,-999.0,92,0.00,,,0.38,tws,2013-07-12 23:39:00,
2013-07-12 19:44:00,68.2,66.1,29.77,North,-999,-999.0,-999.0,92,0.00,,,0.38,tws,2013-07-12 23:44:00,
2013-07-12 19:49:00,68.2,66.1,29.77,North,-999,-999.0,-999.0,92,0.00,,,0.38,tws,2013-07-12 23:49:00,
2013-07-12 19:54:00,68.2,66.1,29.77,North,-999,-999.0,-999.0,92,0.00,,,0.38,tws,2013-07-12 23:54:00,
2013-07-12 19:59:00,68.2,66.1,29.77,North,-999,-999.0,-999.0,92,0.00,,,0.38,tws,2013-07-12 23:59:00,
2013-07-12 20:04:00,68.3,66.1,29.77,North,-999,-999.0,-999.0,92,0.00,,,0.38,tws,2013-07-13 00:04:00,
2013-07-12 20:09:00,68.5,66.2,29.77,North,-999,-999.0,-999.0,92,0.00,,,0.38,tws,2013-07-13 00:09:00,
2013-07-12 20:14:00,68.5,66.1,29.77,North,-999,-999.0,-999.0,92,0.00,,,0.38,tws,2013-07-13 00:14:00,
2013-07-12 20:19:00,68.5,66.2,29.77,North,-999,-999.0,-999.0,92,0.00,,,0.38,tws,2013-07-13 00:19:00,
2013-07-12 20:24:00,68.5,66.2,29.77,North,-999,-999.0,-999.0,92,0.00,,,0.38,tws,2013-07-13 00:24:00,
2013-07-12 20:29:00,68.5,66.1,29.77,North,-999,-999.0,-999.0,92,0.00,,,0.38,tws,2013-07-13 00:29:00,
2013-07-12 20:34:00,68.5,66.3,29.77,North,-999,-999.0,-999.0,92,0.00,,,0.38,tws,2013-07-13 00:34:00,
2013-07-12 20:39:00,68.4,66.1,29.77,North,-999,-999.0,-999.0,92,0.00,,,0.38,tws,2013-07-13 00:39:00,
2013-07-12 20:44:00,68.4,66.1,29.76,North,-999,-999.0,-999.0,92,0.00,,,0.38,tws,2013-07-13 00:44:00,
2013-07-12 20:50:00,68.4,66.0,29.76,North,-999,-999.0,-999.0,92,0.00,,,0.38,tws,2013-07-13 00:50:00,
2013-07-12 20:59:00,68.3,65.9,29.76,North,-999,-999.0,-999.0,91,0.00,,,0.38,tws,2013-07-13 00:59:00,
2013-07-12 21:04:00,68.3,66.0,29.76,North,-999,-999.0,-999.0,92,0.00,,,0.38,tws,2013-07-13 01:04:00,
2013-07-12 21:09:00,68.2,65.9,29.77,North,-999,-999.0,-999.0,92,0.00,,,0.38,tws,2013-07-13 01:09:00,
2013-07-12 21:14:00,68.1,65.8,29.77,North,-999,-999.0,-999.0,92,0.00,,,0.38,tws,2013-07-13 01:14:00,
2013-07-12 21:19:00,68.1,65.7,29.77,North,-999,-999.0,-999.0,91,0.00,,,0.38,tws,2013-07-13 01:19:00,
2013-07-12 21:24:00,68.0,65.6,29.77,North,-999,-999.0,-999.0,91,0.00,,,0.38,tws,2013-07-13 01:24:00,
2013-07-12 21:29:00,67.9,65.5,29.77,North,-999,-999.0,-999.0,92,0.00,,,0.38,tws,2013-07-13 01:29:00,
2013-07-12 21:34:00,67.9,65.5,29.77,North,-999,-999.0,-999.0,92,0.00,,,0.38,tws,2013-07-13 01:34:00,
2013-07-12 21:39:00,67.9,65.5,29.77,North,-999,-999.0,-999.0,91,0.00,,,0.38,tws,2013-07-13 01:39:00,
2013-07-12 21:44:00,67.8,65.4,29.78,North,-999,-999.0,-999.0,91,0.00,,,0.38,tws,2013-07-13 01:44:00,
2013-07-12 21:49:00,67.8,65.4,29.79,North,-999,-999.0,-999.0,91,0.00,,,0.38,tws,2013-07-13 01:49:00,
2013-07-12 21:59:00,66.4,64.9,29.80,North,-999,-999.0,-999.0,94,0.00,,,0.38,tws,2013-07-13 01:59:00,
2013-07-12 22:04:00,65.3,64.1,29.80,North,-999,-999.0,-999.0,95,0.00,,,0.38,tws,2013-07-13 02:04:00,
2013-07-12 22:10:00,64.3,63.2,29.80,North,-999,-999.0,-999.0,96,0.00,,,0.38,tws,2013-07-13 02:10:00,
2013-07-12 22:19:00,63.2,62.1,29.80,North,-999,-999.0,-999.0,96,0.00,,,0.38,tws,2013-07-13 02:19:00,
2013-07-12 22:24:00,62.9,61.7,29.82,North,-999,-999.0,-999.0,95,0.00,,,0.38,tws,2013-07-13 02:24:00,
2013-07-12 22:30:00,62.7,61.5,29.82,North,-999,-999.0,-999.0,95,0.00,,,0.38,tws,2013-07-13 02:30:00,
2013-07-12 22:39:00,62.6,61.3,29.82,North,-999,-999.0,-999.0,95,0.00,,,0.38,tws,2013-07-13 02:39:00,
2013-07-12 22:44:00,62.8,61.3,29.83,North,-999,-999.0,-999.0,94,0.00,,,0.38,tws,2013-07-13 02:44:00,
2013-07-12 22:49:00,62.9,61.4,29.83,North,-999,-999.0,-999.0,95,0.00,,,0.38,tws,2013-07-13 02:49:00,
2013-07-12 22:54:00,62.7,61.3,29.83,North,-999,-999.0,-999.0,95,0.00,,,0.38,tws,2013-07-13 02:54:00,
2013-07-12 23:00:00,62.7,61.3,29.84,North,-999,-999.0,-999.0,94,0.00,,,0.38,tws,2013-07-13 03:00:00,
2013-07-12 23:10:00,62.6,61.1,29.83,North,-999,-999.0,-999.0,95,0.00,,,0.38,tws,2013-07-13 03:10:00,
2013-07-12 23:20:00,62.7,61.3,29.82,North,-999,-999.0,-999.0,95,0.00,,,0.38,tws,2013-07-13 03:20:00,
2013-07-12 23:30:00,62.4,61.0,29.82,North,-999,-999.0,-999.0,95,0.00,,,0.38,tws,2013-07-13 03:30:00,
2013-07-12 23:39:00,62.4,61.0,29.83,North,-999,-999.0,-999.0,95,0.00,,,0.38,tws,2013-07-13 03:39:00,
2013-07-12 23:44:00,62.3,61.0,29.83,North,-999,-999.0,-999.0,95,0.00,,,0.38,tws,2013-07-13 03:44:00,
2013-07-12 23:49:00,62.3,60.9,29.83,North,-999,-999.0,-999.0,95,0.00,,,0.38,tws,2013-07-13 03:49:00,
2013-07-12 23:54:00,62.3,60.9,29.83,North,-999,-999.0,-999.0,95,0.00,,,0.38,tws,2013-07-13 03:54:00,
2013-07-12 23:59:00,62.2,60.9,29.83,North,-999,-999.0,-999.0,95,0.00,,,0.00,tws,2013-07-13 03:59:00,